sensor_id;sensor_type;location;lat;lon;timestamp;P1;durP1;ratioP1;P2;durP2;ratioP2
40595;SDS011;26304;48.794;9.820;2023-01-25T00:04:46;3.28;;;2.97;;
40595;SDS011;26304;48.794;9.820;2023-01-25T00:10:30;3.53;;;3.22;;
40595;SDS011;26304;48.794;9.820;2023-01-25T00:16:13;3.40;;;3.10;;
40595;SDS011;26304;48.794;9.820;2023-01-25T00:21:55;3.05;;;2.85;;
40595;SDS011;26304;48.794;9.820;2023-01-25T00:27:39;3.10;;;2.90;;
40595;SDS011;26304;48.794;9.820;2023-01-25T00:33:31;3.22;;;2.90;;
40595;SDS011;26304;48.794;9.820;2023-01-25T00:39:19;2.90;;;2.70;;
40595;SDS011;26304;48.794;9.820;2023-01-25T00:45:04;2.95;;;2.75;;
40595;SDS011;26304;48.794;9.820;2023-01-25T00:50:47;2.97;;;2.78;;
40595;SDS011;26304;48.794;9.820;2023-01-25T00:56:29;2.70;;;2.50;;
40595;SDS011;26304;48.794;9.820;2023-01-25T01:02:13;2.83;;;2.63;;
40595;SDS011;26304;48.794;9.820;2023-01-25T01:07:55;2.83;;;2.63;;
40595;SDS011;26304;48.794;9.820;2023-01-25T01:13:38;2.80;;;2.60;;
40595;SDS011;26304;48.794;9.820;2023-01-25T01:19:22;2.90;;;2.70;;
40595;SDS011;26304;48.794;9.820;2023-01-25T01:25:05;2.85;;;2.65;;
40595;SDS011;26304;48.794;9.820;2023-01-25T01:30:49;3.33;;;3.03;;
40595;SDS011;26304;48.794;9.820;2023-01-25T01:36:33;2.72;;;2.53;;
40595;SDS011;26304;48.794;9.820;2023-01-25T01:42:15;2.55;;;2.35;;
40595;SDS011;26304;48.794;9.820;2023-01-25T01:47:57;2.95;;;2.60;;
40595;SDS011;26304;48.794;9.820;2023-01-25T01:53:42;2.88;;;2.60;;
40595;SDS011;26304;48.794;9.820;2023-01-25T01:59:29;2.85;;;2.65;;
40595;SDS011;26304;48.794;9.820;2023-01-25T02:05:16;2.70;;;2.50;;
40595;SDS011;26304;48.794;9.820;2023-01-25T02:11:03;2.60;;;2.40;;
40595;SDS011;26304;48.794;9.820;2023-01-25T02:16:46;2.53;;;2.15;;
40595;SDS011;26304;48.794;9.820;2023-01-25T02:22:29;2.42;;;2.22;;
40595;SDS011;26304;48.794;9.820;2023-01-25T02:28:18;2.78;;;2.58;;
40595;SDS011;26304;48.794;9.820;2023-01-25T02:34:05;2.70;;;2.50;;
40595;SDS011;26304;48.794;9.820;2023-01-25T02:39:47;2.13;;;2.03;;
40595;SDS011;26304;48.794;9.820;2023-01-25T02:45:31;2.20;;;2.00;;
40595;SDS011;26304;48.794;9.820;2023-01-25T02:51:14;2.53;;;2.33;;
40595;SDS011;26304;48.794;9.820;2023-01-25T02:56:56;2.22;;;2.03;;
40595;SDS011;26304;48.794;9.820;2023-01-25T03:02:40;2.05;;;1.90;;
40595;SDS011;26304;48.794;9.820;2023-01-25T03:08:22;2.22;;;2.10;;
40595;SDS011;26304;48.794;9.820;2023-01-25T03:14:05;2.00;;;1.90;;
40595;SDS011;26304;48.794;9.820;2023-01-25T03:19:49;2.05;;;1.95;;
40595;SDS011;26304;48.794;9.820;2023-01-25T03:25:32;2.08;;;1.98;;
40595;SDS011;26304;48.794;9.820;2023-01-25T03:31:15;1.90;;;1.80;;
40595;SDS011;26304;48.794;9.820;2023-01-25T03:37:00;1.60;;;1.50;;
40595;SDS011;26304;48.794;9.820;2023-01-25T03:42:44;1.40;;;1.30;;
40595;SDS011;26304;48.794;9.820;2023-01-25T03:48:27;1.10;;;1.10;;
40595;SDS011;26304;48.794;9.820;2023-01-25T03:54:11;0.95;;;0.95;;
40595;SDS011;26304;48.794;9.820;2023-01-25T03:59:53;0.85;;;0.85;;
40595;SDS011;26304;48.794;9.820;2023-01-25T04:05:36;0.73;;;0.73;;
40595;SDS011;26304;48.794;9.820;2023-01-25T04:11:20;0.90;;;0.90;;
40595;SDS011;26304;48.794;9.820;2023-01-25T04:17:02;0.80;;;0.80;;
40595;SDS011;26304;48.794;9.820;2023-01-25T04:22:48;0.60;;;0.60;;
40595;SDS011;26304;48.794;9.820;2023-01-25T04:28:32;0.47;;;0.47;;
40595;SDS011;26304;48.794;9.820;2023-01-25T04:34:15;0.50;;;0.50;;
40595;SDS011;26304;48.794;9.820;2023-01-25T04:39:57;0.43;;;0.43;;
40595;SDS011;26304;48.794;9.820;2023-01-25T04:45:41;0.38;;;0.38;;
40595;SDS011;26304;48.794;9.820;2023-01-25T04:51:23;0.30;;;0.30;;
40595;SDS011;26304;48.794;9.820;2023-01-25T04:57:06;0.30;;;0.30;;
40595;SDS011;26304;48.794;9.820;2023-01-25T05:02:50;0.80;;;0.50;;
40595;SDS011;26304;48.794;9.820;2023-01-25T05:08:32;0.38;;;0.38;;
40595;SDS011;26304;48.794;9.820;2023-01-25T05:14:14;0.60;;;0.55;;
40595;SDS011;26304;48.794;9.820;2023-01-25T05:19:58;1.83;;;0.60;;
40595;SDS011;26304;48.794;9.820;2023-01-25T05:25:41;0.90;;;0.43;;
40595;SDS011;26304;48.794;9.820;2023-01-25T05:31:41;2.40;;;0.70;;
40595;SDS011;26304;48.794;9.820;2023-01-25T05:37:25;1.23;;;0.70;;
40595;SDS011;26304;48.794;9.820;2023-01-25T05:43:08;0.93;;;0.60;;
40595;SDS011;26304;48.794;9.820;2023-01-25T05:48:50;1.92;;;0.60;;
40595;SDS011;26304;48.794;9.820;2023-01-25T05:54:34;1.05;;;0.80;;
40595;SDS011;26304;48.794;9.820;2023-01-25T06:00:17;0.82;;;0.65;;
40595;SDS011;26304;48.794;9.820;2023-01-25T06:06:00;2.20;;;1.20;;
40595;SDS011;26304;48.794;9.820;2023-01-25T06:11:44;3.17;;;1.13;;
40595;SDS011;26304;48.794;9.820;2023-01-25T06:17:27;1.43;;;1.10;;
40595;SDS011;26304;48.794;9.820;2023-01-25T06:23:09;1.17;;;0.93;;
40595;SDS011;26304;48.794;9.820;2023-01-25T06:28:53;2.25;;;0.98;;
40595;SDS011;26304;48.794;9.820;2023-01-25T06:34:35;2.85;;;1.83;;
40595;SDS011;26304;48.794;9.820;2023-01-25T06:40:17;2.85;;;1.95;;
40595;SDS011;26304;48.794;9.820;2023-01-25T06:46:02;7.00;;;2.10;;
40595;SDS011;26304;48.794;9.820;2023-01-25T06:51:45;2.35;;;1.65;;
40595;SDS011;26304;48.794;9.820;2023-01-25T06:57:27;3.33;;;1.63;;
40595;SDS011;26304;48.794;9.820;2023-01-25T07:03:11;3.60;;;1.77;;
40595;SDS011;26304;48.794;9.820;2023-01-25T07:08:53;2.45;;;1.92;;
40595;SDS011;26304;48.794;9.820;2023-01-25T07:14:36;3.78;;;2.30;;
40595;SDS011;26304;48.794;9.820;2023-01-25T07:20:20;3.90;;;2.43;;
40595;SDS011;26304;48.794;9.820;2023-01-25T07:26:03;4.07;;;2.60;;
40595;SDS011;26304;48.794;9.820;2023-01-25T07:31:46;4.07;;;2.70;;
40595;SDS011;26304;48.794;9.820;2023-01-25T07:37:30;2.75;;;2.22;;
40595;SDS011;26304;48.794;9.820;2023-01-25T07:43:14;2.80;;;2.20;;
40595;SDS011;26304;48.794;9.820;2023-01-25T07:48:56;3.88;;;2.28;;
40595;SDS011;26304;48.794;9.820;2023-01-25T07:54:40;2.97;;;2.13;;
40595;SDS011;26304;48.794;9.820;2023-01-25T08:00:22;3.72;;;2.35;;
40595;SDS011;26304;48.794;9.820;2023-01-25T08:06:05;3.70;;;2.63;;
40595;SDS011;26304;48.794;9.820;2023-01-25T08:11:50;2.47;;;2.28;;
40595;SDS011;26304;48.794;9.820;2023-01-25T08:17:33;5.50;;;2.75;;
40595;SDS011;26304;48.794;9.820;2023-01-25T08:23:15;4.75;;;2.65;;
40595;SDS011;26304;48.794;9.820;2023-01-25T08:29:01;3.75;;;2.38;;
40595;SDS011;26304;48.794;9.820;2023-01-25T08:34:44;3.40;;;2.55;;
40595;SDS011;26304;48.794;9.820;2023-01-25T08:40:26;2.53;;;2.33;;
40595;SDS011;26304;48.794;9.820;2023-01-25T08:46:11;2.63;;;2.05;;
40595;SDS011;26304;48.794;9.820;2023-01-25T08:51:54;4.13;;;2.35;;
40595;SDS011;26304;48.794;9.820;2023-01-25T08:57:36;2.67;;;2.38;;
40595;SDS011;26304;48.794;9.820;2023-01-25T09:03:20;3.80;;;2.55;;
40595;SDS011;26304;48.794;9.820;2023-01-25T09:09:02;2.90;;;2.33;;
40595;SDS011;26304;48.794;9.820;2023-01-25T09:14:46;2.47;;;2.10;;
40595;SDS011;26304;48.794;9.820;2023-01-25T09:20:29;2.70;;;2.28;;
40595;SDS011;26304;48.794;9.820;2023-01-25T09:26:12;2.45;;;2.22;;
40595;SDS011;26304;48.794;9.820;2023-01-25T09:31:55;4.32;;;2.30;;
40595;SDS011;26304;48.794;9.820;2023-01-25T09:37:38;2.53;;;2.10;;
40595;SDS011;26304;48.794;9.820;2023-01-25T09:43:22;3.67;;;2.35;;
40595;SDS011;26304;48.794;9.820;2023-01-25T09:49:20;2.55;;;2.30;;
40595;SDS011;26304;48.794;9.820;2023-01-25T09:55:14;3.28;;;2.00;;
40595;SDS011;26304;48.794;9.820;2023-01-25T10:01:04;3.38;;;2.35;;
40595;SDS011;26304;48.794;9.820;2023-01-25T10:06:58;3.58;;;2.40;;
40595;SDS011;26304;48.794;9.820;2023-01-25T10:12:55;4.32;;;2.60;;
40595;SDS011;26304;48.794;9.820;2023-01-25T10:18:38;4.35;;;2.30;;
40595;SDS011;26304;48.794;9.820;2023-01-25T10:24:39;2.63;;;2.15;;
40595;SDS011;26304;48.794;9.820;2023-01-25T10:30:34;2.33;;;1.80;;
40595;SDS011;26304;48.794;9.820;2023-01-25T10:36:24;2.97;;;1.90;;
40595;SDS011;26304;48.794;9.820;2023-01-25T10:42:10;2.28;;;2.00;;
40595;SDS011;26304;48.794;9.820;2023-01-25T10:47:59;4.25;;;2.40;;
40595;SDS011;26304;48.794;9.820;2023-01-25T10:53:46;2.95;;;2.13;;
40595;SDS011;26304;48.794;9.820;2023-01-25T10:59:43;2.45;;;1.95;;
40595;SDS011;26304;48.794;9.820;2023-01-25T11:05:31;2.10;;;1.77;;
40595;SDS011;26304;48.794;9.820;2023-01-25T11:11:22;2.70;;;2.00;;
40595;SDS011;26304;48.794;9.820;2023-01-25T11:17:16;2.20;;;2.00;;
40595;SDS011;26304;48.794;9.820;2023-01-25T11:23:08;3.10;;;2.38;;
40595;SDS011;26304;48.794;9.820;2023-01-25T11:29:10;2.15;;;1.95;;
40595;SDS011;26304;48.794;9.820;2023-01-25T11:34:54;1.95;;;1.75;;
40595;SDS011;26304;48.794;9.820;2023-01-25T11:40:39;2.67;;;2.10;;
40595;SDS011;26304;48.794;9.820;2023-01-25T11:46:32;2.30;;;1.83;;
40595;SDS011;26304;48.794;9.820;2023-01-25T11:52:28;2.22;;;1.88;;
40595;SDS011;26304;48.794;9.820;2023-01-25T11:58:23;2.28;;;2.08;;
40595;SDS011;26304;48.794;9.820;2023-01-25T12:10:29;2.10;;;1.90;;
40595;SDS011;26304;48.794;9.820;2023-01-25T12:16:25;2.38;;;2.17;;
40595;SDS011;26304;48.794;9.820;2023-01-25T12:28:32;2.47;;;2.28;;
40595;SDS011;26304;48.794;9.820;2023-01-25T12:34:21;2.13;;;1.92;;
40595;SDS011;26304;48.794;9.820;2023-01-25T12:40:08;2.30;;;2.10;;
40595;SDS011;26304;48.794;9.820;2023-01-25T12:45:56;2.33;;;2.13;;
40595;SDS011;26304;48.794;9.820;2023-01-25T12:51:42;6.35;;;2.17;;
40595;SDS011;26304;48.794;9.820;2023-01-25T12:57:28;2.17;;;1.98;;
40595;SDS011;26304;48.794;9.820;2023-01-25T13:03:20;5.05;;;1.92;;
40595;SDS011;26304;48.794;9.820;2023-01-25T13:09:14;7.13;;;2.00;;
40595;SDS011;26304;48.794;9.820;2023-01-25T13:15:18;5.00;;;2.00;;
40595;SDS011;26304;48.794;9.820;2023-01-25T13:27:24;4.25;;;1.98;;
40595;SDS011;26304;48.794;9.820;2023-01-25T13:33:07;3.50;;;2.03;;
40595;SDS011;26304;48.794;9.820;2023-01-25T13:38:49;6.97;;;2.22;;
40595;SDS011;26304;48.794;9.820;2023-01-25T13:44:33;3.33;;;1.92;;
40595;SDS011;26304;48.794;9.820;2023-01-25T13:50:20;2.50;;;2.00;;
40595;SDS011;26304;48.794;9.820;2023-01-25T13:56:20;2.70;;;1.85;;
40595;SDS011;26304;48.794;9.820;2023-01-25T14:02:12;1.98;;;1.80;;
40595;SDS011;26304;48.794;9.820;2023-01-25T14:07:59;2.00;;;1.90;;
40595;SDS011;26304;48.794;9.820;2023-01-25T14:13:53;2.42;;;2.03;;
40595;SDS011;26304;48.794;9.820;2023-01-25T14:19:39;2.63;;;2.20;;
40595;SDS011;26304;48.794;9.820;2023-01-25T14:25:24;2.47;;;2.00;;
40595;SDS011;26304;48.794;9.820;2023-01-25T14:31:12;2.45;;;1.67;;
40595;SDS011;26304;48.794;9.820;2023-01-25T14:37:05;2.70;;;1.95;;
40595;SDS011;26304;48.794;9.820;2023-01-25T14:42:55;2.30;;;2.08;;
40595;SDS011;26304;48.794;9.820;2023-01-25T14:48:39;3.67;;;2.20;;
40595;SDS011;26304;48.794;9.820;2023-01-25T14:54:24;2.83;;;2.17;;
40595;SDS011;26304;48.794;9.820;2023-01-25T15:00:18;5.70;;;2.70;;
40595;SDS011;26304;48.794;9.820;2023-01-25T15:06:02;4.95;;;2.90;;
40595;SDS011;26304;48.794;9.820;2023-01-25T15:11:47;3.85;;;2.80;;
40595;SDS011;26304;48.794;9.820;2023-01-25T15:17:41;2.92;;;2.40;;
40595;SDS011;26304;48.794;9.820;2023-01-25T15:23:25;3.15;;;2.95;;
40595;SDS011;26304;48.794;9.820;2023-01-25T15:29:12;4.03;;;2.30;;
40595;SDS011;26304;48.794;9.820;2023-01-25T15:34:56;4.78;;;2.78;;
40595;SDS011;26304;48.794;9.820;2023-01-25T15:40:42;3.55;;;2.80;;
40595;SDS011;26304;48.794;9.820;2023-01-25T15:46:27;3.67;;;2.78;;
40595;SDS011;26304;48.794;9.820;2023-01-25T15:52:13;4.10;;;2.55;;
40595;SDS011;26304;48.794;9.820;2023-01-25T15:57:55;4.55;;;2.42;;
40595;SDS011;26304;48.794;9.820;2023-01-25T16:03:39;2.65;;;2.45;;
40595;SDS011;26304;48.794;9.820;2023-01-25T16:09:22;3.33;;;2.65;;
40595;SDS011;26304;48.794;9.820;2023-01-25T16:15:07;2.80;;;2.40;;
40595;SDS011;26304;48.794;9.820;2023-01-25T16:20:51;3.75;;;2.55;;
40595;SDS011;26304;48.794;9.820;2023-01-25T16:26:33;3.28;;;2.20;;
40595;SDS011;26304;48.794;9.820;2023-01-25T16:32:18;2.55;;;2.35;;
40595;SDS011;26304;48.794;9.820;2023-01-25T16:38:02;4.22;;;2.45;;
40595;SDS011;26304;48.794;9.820;2023-01-25T16:43:45;3.33;;;2.92;;
40595;SDS011;26304;48.794;9.820;2023-01-25T16:49:29;2.65;;;2.45;;
40595;SDS011;26304;48.794;9.820;2023-01-25T16:55:14;3.83;;;2.60;;
40595;SDS011;26304;48.794;9.820;2023-01-25T17:00:57;2.50;;;2.20;;
40595;SDS011;26304;48.794;9.820;2023-01-25T17:06:40;2.47;;;2.28;;
40595;SDS011;26304;48.794;9.820;2023-01-25T17:12:25;3.10;;;2.40;;
40595;SDS011;26304;48.794;9.820;2023-01-25T17:18:07;2.50;;;2.30;;
40595;SDS011;26304;48.794;9.820;2023-01-25T17:23:50;2.15;;;1.95;;
40595;SDS011;26304;48.794;9.820;2023-01-25T17:29:34;2.90;;;2.38;;
40595;SDS011;26304;48.794;9.820;2023-01-25T17:35:18;3.42;;;1.88;;
40595;SDS011;26304;48.794;9.820;2023-01-25T17:41:01;2.38;;;2.17;;
40595;SDS011;26304;48.794;9.820;2023-01-25T17:46:45;2.30;;;2.10;;
40595;SDS011;26304;48.794;9.820;2023-01-25T17:52:28;3.85;;;2.30;;
40595;SDS011;26304;48.794;9.820;2023-01-25T17:58:11;2.88;;;2.42;;
40595;SDS011;26304;48.794;9.820;2023-01-25T18:03:55;2.30;;;2.10;;
40595;SDS011;26304;48.794;9.820;2023-01-25T18:09:37;1.98;;;1.77;;
40595;SDS011;26304;48.794;9.820;2023-01-25T18:15:20;2.00;;;1.88;;
40595;SDS011;26304;48.794;9.820;2023-01-25T18:21:06;2.13;;;1.92;;
40595;SDS011;26304;48.794;9.820;2023-01-25T18:26:49;3.65;;;2.53;;
40595;SDS011;26304;48.794;9.820;2023-01-25T18:32:32;2.25;;;1.60;;
40595;SDS011;26304;48.794;9.820;2023-01-25T18:38:16;4.30;;;1.83;;
40595;SDS011;26304;48.794;9.820;2023-01-25T18:43:58;2.28;;;2.10;;
40595;SDS011;26304;48.794;9.820;2023-01-25T18:49:41;3.33;;;2.50;;
40595;SDS011;26304;48.794;9.820;2023-01-25T18:55:25;2.30;;;2.10;;
40595;SDS011;26304;48.794;9.820;2023-01-25T19:01:09;2.75;;;2.30;;
40595;SDS011;26304;48.794;9.820;2023-01-25T19:06:53;6.38;;;2.10;;
40595;SDS011;26304;48.794;9.820;2023-01-25T19:12:38;2.88;;;2.20;;
40595;SDS011;26304;48.794;9.820;2023-01-25T19:18:21;2.40;;;2.20;;
40595;SDS011;26304;48.794;9.820;2023-01-25T19:24:03;2.53;;;2.20;;
40595;SDS011;26304;48.794;9.820;2023-01-25T19:29:52;5.37;;;2.60;;
40595;SDS011;26304;48.794;9.820;2023-01-25T19:35:35;2.40;;;2.20;;
40595;SDS011;26304;48.794;9.820;2023-01-25T19:41:18;3.60;;;2.08;;
40595;SDS011;26304;48.794;9.820;2023-01-25T19:47:03;2.95;;;2.08;;
40595;SDS011;26304;48.794;9.820;2023-01-25T19:52:45;2.53;;;2.33;;
40595;SDS011;26304;48.794;9.820;2023-01-25T19:58:28;2.20;;;2.00;;
40595;SDS011;26304;48.794;9.820;2023-01-25T20:04:13;2.97;;;2.10;;
40595;SDS011;26304;48.794;9.820;2023-01-25T20:09:57;2.72;;;2.28;;
40595;SDS011;26304;48.794;9.820;2023-01-25T20:15:44;2.45;;;2.00;;
40595;SDS011;26304;48.794;9.820;2023-01-25T20:21:28;4.25;;;3.85;;
40595;SDS011;26304;48.794;9.820;2023-01-25T20:27:13;6.75;;;5.80;;
40595;SDS011;26304;48.794;9.820;2023-01-25T20:32:55;6.60;;;5.72;;
40595;SDS011;26304;48.794;9.820;2023-01-25T20:38:39;6.63;;;5.97;;
40595;SDS011;26304;48.794;9.820;2023-01-25T20:44:21;6.20;;;5.60;;
40595;SDS011;26304;48.794;9.820;2023-01-25T20:50:04;6.50;;;5.90;;
40595;SDS011;26304;48.794;9.820;2023-01-25T20:55:54;6.60;;;5.95;;
40595;SDS011;26304;48.794;9.820;2023-01-25T21:01:37;6.07;;;5.43;;
40595;SDS011;26304;48.794;9.820;2023-01-25T21:07:19;5.78;;;5.20;;
40595;SDS011;26304;48.794;9.820;2023-01-25T21:13:03;5.38;;;4.88;;
40595;SDS011;26304;48.794;9.820;2023-01-25T21:18:46;5.65;;;5.05;;
40595;SDS011;26304;48.794;9.820;2023-01-25T21:24:31;4.72;;;4.30;;
40595;SDS011;26304;48.794;9.820;2023-01-25T21:30:16;4.50;;;3.97;;
40595;SDS011;26304;48.794;9.820;2023-01-25T21:35:59;5.68;;;4.18;;
40595;SDS011;26304;48.794;9.820;2023-01-25T21:41:41;5.43;;;4.18;;
40595;SDS011;26304;48.794;9.820;2023-01-25T21:47:25;4.55;;;4.15;;
40595;SDS011;26304;48.794;9.820;2023-01-25T21:53:10;3.80;;;3.47;;
40595;SDS011;26304;48.794;9.820;2023-01-25T21:58:52;3.65;;;3.35;;
40595;SDS011;26304;48.794;9.820;2023-01-25T22:04:36;3.30;;;3.00;;
40595;SDS011;26304;48.794;9.820;2023-01-25T22:10:19;3.67;;;3.38;;
40595;SDS011;26304;48.794;9.820;2023-01-25T22:16:01;3.47;;;3.17;;
40595;SDS011;26304;48.794;9.820;2023-01-25T22:21:46;3.63;;;3.10;;
40595;SDS011;26304;48.794;9.820;2023-01-25T22:27:30;4.35;;;3.88;;
40595;SDS011;26304;48.794;9.820;2023-01-25T22:33:18;3.55;;;3.25;;
40595;SDS011;26304;48.794;9.820;2023-01-25T22:39:02;3.30;;;3.00;;
40595;SDS011;26304;48.794;9.820;2023-01-25T22:44:45;3.28;;;2.97;;
40595;SDS011;26304;48.794;9.820;2023-01-25T22:50:30;2.83;;;2.63;;
40595;SDS011;26304;48.794;9.820;2023-01-25T22:56:14;3.28;;;2.97;;
40595;SDS011;26304;48.794;9.820;2023-01-25T23:01:58;3.03;;;2.83;;
40595;SDS011;26304;48.794;9.820;2023-01-25T23:07:41;2.92;;;2.70;;
40595;SDS011;26304;48.794;9.820;2023-01-25T23:13:25;2.60;;;2.40;;
40595;SDS011;26304;48.794;9.820;2023-01-25T23:19:07;3.28;;;2.97;;
40595;SDS011;26304;48.794;9.820;2023-01-25T23:24:50;2.60;;;2.40;;
40595;SDS011;26304;48.794;9.820;2023-01-25T23:30:33;2.63;;;2.42;;
40595;SDS011;26304;48.794;9.820;2023-01-25T23:36:16;2.80;;;2.60;;
40595;SDS011;26304;48.794;9.820;2023-01-25T23:42:00;2.67;;;2.47;;
40595;SDS011;26304;48.794;9.820;2023-01-25T23:47:44;2.72;;;2.53;;
40595;SDS011;26304;48.794;9.820;2023-01-25T23:53:28;3.03;;;2.72;;
40595;SDS011;26304;48.794;9.820;2023-01-25T23:59:11;2.83;;;2.63;;
